Time;durP1;ratioP1;P1;durP2;ratioP2;P2;SDS_P1;SDS_P2;PMS_P1;PMS_P2;Temp;Humidity;BMP_temperature;BMP_pressure;BME280_temperature;BME280_humidity;BME280_pressure;Samples;Min_cycle;Max_cycle;Signal;HPM_P1;HPM_P2
2023/10/30 00:02:49;;;;;;;3.67;1.65;;;;;;;;;;5048059;28;20049;-78
2023/10/30 00:06:30;;;;;;;5.53;2.20;;;;;;;;;;5048406;28;20036;-74
2023/10/30 00:10:10;;;;;;;5.55;2.33;;;;;;;;;;5035365;28;20469;-76
2023/10/30 00:13:52;;;;;;;4.72;2.30;;;;;;;;;;5039892;28;20394;-75
2023/10/30 00:17:32;;;;;;;4.53;1.77;;;;;;;;;;5038916;28;20090;-76
2023/10/30 00:21:14;;;;;;;3.47;1.65;;;;;;;;;;5042111;28;20409;-78
2023/10/30 00:24:54;;;;;;;5.00;1.52;;;;;;;;;;5038946;28;20041;-74
2023/10/30 00:28:34;;;;;;;8.02;1.50;;;;;;;;;;5040207;28;20471;-75
2023/10/30 00:32:15;;;;;;;8.40;2.22;;;;;;;;;;5039456;28;20053;-75
2023/10/30 00:35:55;;;;;;;4.82;1.60;;;;;;;;;;5035509;28;20060;-75
2023/10/30 00:39:35;;;;;;;3.08;1.52;;;;;;;;;;5035317;28;20452;-73
2023/10/30 00:43:16;;;;;;;6.55;1.95;;;;;;;;;;5036966;28;20052;-74
2023/10/30 00:46:56;;;;;;;4.03;1.35;;;;;;;;;;5040742;28;20057;-73
2023/10/30 00:50:36;;;;;;;4.50;1.63;;;;;;;;;;5041820;28;20056;-74
2023/10/30 00:54:17;;;;;;;4.65;1.40;;;;;;;;;;5034478;28;20140;-76
2023/10/30 00:57:58;;;;;;;3.67;1.40;;;;;;;;;;5040314;28;20056;-75
2023/10/30 01:01:39;;;;;;;5.63;1.85;;;;;;;;;;5043349;28;20051;-71
2023/10/30 01:05:19;;;;;;;5.30;2.13;;;;;;;;;;5045925;28;20508;-73
2023/10/30 01:08:59;;;;;;;7.35;1.98;;;;;;;;;;5036816;28;20041;-74
2023/10/30 01:12:40;;;;;;;9.43;1.92;;;;;;;;;;5040723;28;20485;-74
2023/10/30 01:16:20;;;;;;;8.30;1.95;;;;;;;;;;5048629;28;20242;-75
2023/10/30 01:20:01;;;;;;;8.27;1.63;;;;;;;;;;5032870;28;20394;-74
2023/10/30 01:23:41;;;;;;;4.35;1.70;;;;;;;;;;5041546;28;20049;-74
2023/10/30 01:27:22;;;;;;;8.15;1.80;;;;;;;;;;5043093;28;20047;-75
2023/10/30 01:31:04;;;;;;;6.25;1.60;;;;;;;;;;5039478;28;20129;-74
2023/10/30 01:34:44;;;;;;;3.70;1.45;;;;;;;;;;5043973;28;20052;-74
2023/10/30 01:38:23;;;;;;;3.17;1.52;;;;;;;;;;5039368;28;20044;-73
2023/10/30 01:42:03;;;;;;;4.10;1.80;;;;;;;;;;5040817;28;20046;-72
2023/10/30 01:45:44;;;;;;;6.97;1.60;;;;;;;;;;5044569;28;20068;-76
2023/10/30 01:49:26;;;;;;;6.45;1.77;;;;;;;;;;5040551;28;20147;-74
2023/10/30 01:53:06;;;;;;;5.65;1.60;;;;;;;;;;5040011;28;20119;-73
2023/10/30 01:56:46;;;;;;;3.28;1.70;;;;;;;;;;5042189;28;20037;-74
2023/10/30 02:00:28;;;;;;;3.70;1.60;;;;;;;;;;5038701;28;20037;-73
2023/10/30 02:04:07;;;;;;;4.13;1.58;;;;;;;;;;5047178;28;20052;-74
2023/10/30 02:07:47;;;;;;;3.20;1.50;;;;;;;;;;5041236;28;20049;-74
2023/10/30 02:11:29;;;;;;;3.75;1.67;;;;;;;;;;5046190;28;20056;-75
2023/10/30 02:15:10;;;;;;;4.03;1.50;;;;;;;;;;5043851;28;20120;-72
2023/10/30 02:18:50;;;;;;;6.30;1.63;;;;;;;;;;5052381;28;20362;-75
2023/10/30 02:22:30;;;;;;;6.35;1.45;;;;;;;;;;5042408;28;20055;-74
2023/10/30 02:26:12;;;;;;;5.38;1.48;;;;;;;;;;5039665;28;20115;-75
2023/10/30 02:29:53;;;;;;;4.53;1.45;;;;;;;;;;5042806;28;20049;-73
2023/10/30 02:33:33;;;;;;;7.53;1.25;;;;;;;;;;5046611;28;20052;-74
2023/10/30 02:37:15;;;;;;;5.95;1.85;;;;;;;;;;5044386;28;20556;-74
2023/10/30 02:40:56;;;;;;;3.33;1.33;;;;;;;;;;5045618;28;20045;-76
2023/10/30 02:44:36;;;;;;;6.35;1.77;;;;;;;;;;5038317;28;20079;-73
2023/10/30 02:48:16;;;;;;;3.10;1.20;;;;;;;;;;5045363;28;20119;-72
2023/10/30 02:51:56;;;;;;;7.47;1.67;;;;;;;;;;5042482;28;20343;-74
2023/10/30 02:55:37;;;;;;;6.18;1.60;;;;;;;;;;5036786;28;20048;-75
2023/10/30 02:59:17;;;;;;;4.38;1.60;;;;;;;;;;5044975;28;20042;-74
2023/10/30 03:02:57;;;;;;;5.25;1.60;;;;;;;;;;5047098;28;20346;-72
2023/10/30 03:06:38;;;;;;;5.53;1.42;;;;;;;;;;5046417;28;20056;-75
2023/10/30 03:10:19;;;;;;;5.50;1.67;;;;;;;;;;5037160;28;20046;-77
2023/10/30 03:13:58;;;;;;;4.57;1.50;;;;;;;;;;5043074;28;20045;-74
2023/10/30 03:17:39;;;;;;;5.53;1.63;;;;;;;;;;5040457;28;20045;-74
2023/10/30 03:21:19;;;;;;;4.63;1.33;;;;;;;;;;5040717;28;20531;-74
2023/10/30 03:24:59;;;;;;;4.97;1.40;;;;;;;;;;5041293;28;20107;-72
2023/10/30 03:28:42;;;;;;;6.82;1.35;;;;;;;;;;5043323;28;20100;-74
2023/10/30 03:32:23;;;;;;;4.65;1.88;;;;;;;;;;5047685;28;20535;-75
2023/10/30 03:36:03;;;;;;;3.38;1.10;;;;;;;;;;5050607;28;20083;-73
2023/10/30 03:39:44;;;;;;;3.83;1.20;;;;;;;;;;5041433;28;20513;-74
2023/10/30 03:43:24;;;;;;;2.97;1.10;;;;;;;;;;5041724;28;20077;-73
2023/10/30 03:47:04;;;;;;;4.55;1.30;;;;;;;;;;5044575;28;20474;-74
2023/10/30 03:50:45;;;;;;;4.78;1.00;;;;;;;;;;5042278;28;20147;-74
2023/10/30 03:54:25;;;;;;;3.30;1.05;;;;;;;;;;5049924;28;20085;-72
2023/10/30 03:58:07;;;;;;;4.28;1.45;;;;;;;;;;5045881;28;20261;-75
2023/10/30 04:01:47;;;;;;;1.75;0.98;;;;;;;;;;5052889;28;20048;-75
2023/10/30 04:05:27;;;;;;;5.75;1.63;;;;;;;;;;5040002;28;20424;-73
2023/10/30 04:09:09;;;;;;;3.00;1.15;;;;;;;;;;5038172;28;20045;-74
2023/10/30 04:12:49;;;;;;;8.98;1.55;;;;;;;;;;5041739;28;20060;-73
2023/10/30 04:16:30;;;;;;;3.00;1.17;;;;;;;;;;5033763;28;20056;-74
2023/10/30 04:20:10;;;;;;;3.65;1.42;;;;;;;;;;5041284;28;20067;-72
2023/10/30 04:23:51;;;;;;;5.43;1.45;;;;;;;;;;5032552;28;20199;-74
2023/10/30 04:27:31;;;;;;;3.20;1.42;;;;;;;;;;5049401;28;20135;-73
2023/10/30 04:31:12;;;;;;;5.78;1.80;;;;;;;;;;5045240;28;20045;-75
2023/10/30 04:34:52;;;;;;;5.70;1.85;;;;;;;;;;5036081;28;20080;-74
2023/10/30 04:38:34;;;;;;;6.00;1.55;;;;;;;;;;5043440;28;20045;-74
2023/10/30 04:42:14;;;;;;;7.47;1.50;;;;;;;;;;5040053;28;20540;-74
2023/10/30 04:45:55;;;;;;;7.13;1.67;;;;;;;;;;5041160;28;20090;-76
2023/10/30 04:49:36;;;;;;;5.53;1.40;;;;;;;;;;5043140;28;20552;-73
2023/10/30 04:53:15;;;;;;;3.17;1.45;;;;;;;;;;5046878;28;20128;-74
2023/10/30 04:56:56;;;;;;;4.03;1.77;;;;;;;;;;5036873;28;20120;-75
2023/10/30 05:00:36;;;;;;;5.20;1.70;;;;;;;;;;5031999;28;20141;-74
2023/10/30 05:04:17;;;;;;;8.05;1.88;;;;;;;;;;5040225;28;20132;-77
2023/10/30 05:07:58;;;;;;;7.95;1.73;;;;;;;;;;5038560;28;20050;-74
2023/10/30 05:11:39;;;;;;;5.00;1.40;;;;;;;;;;5041018;28;20128;-77
2023/10/30 05:15:23;;;;;;;5.93;1.58;;;;;;;;;;5040734;28;20089;-75
2023/10/30 05:19:04;;;;;;;4.93;0.93;;;;;;;;;;5031670;28;20034;-76
2023/10/30 05:22:45;;;;;;;6.32;1.40;;;;;;;;;;5043490;28;20052;-79
2023/10/30 05:26:26;;;;;;;2.03;0.82;;;;;;;;;;5042642;28;20049;-77
2023/10/30 05:30:06;;;;;;;2.35;0.98;;;;;;;;;;5040877;28;20119;-73
2023/10/30 05:33:46;;;;;;;3.58;1.00;;;;;;;;;;5040851;28;20053;-75
2023/10/30 05:37:26;;;;;;;2.70;1.08;;;;;;;;;;5043534;28;20493;-77
2023/10/30 05:41:07;;;;;;;3.72;1.05;;;;;;;;;;5041503;28;20045;-74
2023/10/30 05:44:51;;;;;;;4.05;1.10;;;;;;;;;;5037007;28;20408;-73
2023/10/30 05:48:33;;;;;;;2.55;1.17;;;;;;;;;;5046948;28;20075;-77
2023/10/30 05:52:13;;;;;;;1.98;0.85;;;;;;;;;;5043300;28;20057;-77
2023/10/30 05:55:54;;;;;;;3.17;0.93;;;;;;;;;;5056822;28;20048;-77
2023/10/30 05:59:34;;;;;;;2.90;1.00;;;;;;;;;;5047486;28;20087;-75
2023/10/30 06:03:14;;;;;;;2.42;1.10;;;;;;;;;;5046963;28;20420;-78
2023/10/30 06:06:56;;;;;;;2.67;1.02;;;;;;;;;;5050032;28;20051;-80
2023/10/30 06:10:38;;;;;;;2.67;1.00;;;;;;;;;;5043920;28;20072;-77
2023/10/30 06:14:17;;;;;;;2.30;1.00;;;;;;;;;;5052574;28;20108;-78
2023/10/30 06:17:57;;;;;;;2.17;1.05;;;;;;;;;;5052554;28;20076;-79
2023/10/30 06:21:39;;;;;;;4.95;1.20;;;;;;;;;;5050959;28;20346;-77
2023/10/30 06:25:19;;;;;;;1.42;0.90;;;;;;;;;;5044630;28;20124;-75
2023/10/30 06:29:00;;;;;;;3.63;1.30;;;;;;;;;;5038480;28;20045;-75
2023/10/30 06:32:42;;;;;;;3.65;1.65;;;;;;;;;;5032395;28;20410;-78
2023/10/30 06:36:21;;;;;;;5.55;1.50;;;;;;;;;;5043093;28;20117;-77
2023/10/30 06:40:03;;;;;;;3.88;1.40;;;;;;;;;;5037483;28;20409;-76
2023/10/30 06:43:43;;;;;;;2.65;1.50;;;;;;;;;;5036747;28;20048;-74
2023/10/30 06:47:24;;;;;;;4.80;1.80;;;;;;;;;;5038951;28;20459;-74
2023/10/30 06:51:04;;;;;;;5.90;2.00;;;;;;;;;;5038467;28;20111;-78
2023/10/30 06:54:44;;;;;;;13.00;3.33;;;;;;;;;;5038610;28;20184;-81
2023/10/30 06:58:25;;;;;;;4.95;1.85;;;;;;;;;;5039017;28;20071;-80
2023/10/30 07:02:05;;;;;;;6.38;1.77;;;;;;;;;;5032957;28;20151;-75
2023/10/30 07:05:47;;;;;;;13.02;2.00;;;;;;;;;;5051388;28;20041;-76
2023/10/30 07:09:29;;;;;;;5.07;1.30;;;;;;;;;;5044792;28;20186;-75
2023/10/30 07:13:09;;;;;;;3.72;1.17;;;;;;;;;;5041016;28;20048;-76
2023/10/30 07:16:50;;;;;;;2.50;1.20;;;;;;;;;;5049774;28;20056;-76
2023/10/30 07:19:26;;;;;;;3.25;1.20;;;;;;;;;;5045028;28;20049;-75
2023/10/30 07:22:32;;;;;;;7.60;1.33;;;;;;;;;;5046713;28;20110;-75
2023/10/30 07:26:12;;;;;;;3.63;1.35;;;;;;;;;;5043279;28;20493;-72
2023/10/30 07:29:56;;;;;;;5.00;1.70;;;;;;;;;;5047050;28;20043;-74
2023/10/30 07:33:37;;;;;;;5.05;1.70;;;;;;;;;;5044216;28;20041;-74
2023/10/30 07:37:18;;;;;;;5.60;1.63;;;;;;;;;;5030510;28;20048;-72
2023/10/30 07:41:02;;;;;;;9.43;2.25;;;;;;;;;;5032725;28;20052;-72
2023/10/30 07:44:28;;;;;;;4.25;2.20;;;;;;;;;;5032618;28;20437;-71
2023/10/30 07:47:34;;;;;;;7.78;2.60;;;;;;;;;;4997281;28;21751;-74
2023/10/30 07:51:20;;;;;;;6.05;2.20;;;;;;;;;;5045593;28;20056;-72
2023/10/30 07:55:05;;;;;;;12.57;2.30;;;;;;;;;;5037695;28;20056;-73
2023/10/30 07:58:45;;;;;;;4.75;1.83;;;;;;;;;;5051389;28;20048;-72
2023/10/30 08:02:26;;;;;;;16.75;2.10;;;;;;;;;;5039420;28;20053;-72
2023/10/30 08:06:08;;;;;;;10.63;2.90;;;;;;;;;;5046229;28;20047;-71
2023/10/30 08:09:48;;;;;;;13.38;2.75;;;;;;;;;;5044188;28;20083;-73
2023/10/30 08:13:28;;;;;;;9.73;2.47;;;;;;;;;;5046682;28;20033;-69
2023/10/30 08:17:09;;;;;;;13.45;3.05;;;;;;;;;;5034235;28;20209;-73
2023/10/30 08:20:50;;;;;;;7.95;2.05;;;;;;;;;;5053629;28;20124;-74
2023/10/30 08:24:30;;;;;;;6.80;2.63;;;;;;;;;;5036952;28;20079;-71
2023/10/30 08:28:11;;;;;;;9.13;2.28;;;;;;;;;;5053451;28;20036;-70
2023/10/30 08:31:53;;;;;;;9.32;3.00;;;;;;;;;;5048965;28;20052;-72
2023/10/30 08:35:33;;;;;;;18.08;4.63;;;;;;;;;;5052959;28;20044;-72
2023/10/30 08:39:13;;;;;;;12.93;4.10;;;;;;;;;;5046022;28;20045;-73
2023/10/30 08:42:55;;;;;;;16.02;4.28;;;;;;;;;;5039504;28;20041;-72
2023/10/30 08:46:35;;;;;;;9.00;3.47;;;;;;;;;;5045341;28;20056;-74
2023/10/30 08:50:16;;;;;;;13.50;3.15;;;;;;;;;;5029827;28;20162;-71
2023/10/30 08:53:56;;;;;;;9.55;3.03;;;;;;;;;;5045061;28;20303;-73
2023/10/30 08:57:42;;;;;;;12.18;3.03;;;;;;;;;;5036103;28;20138;-71
2023/10/30 09:01:22;;;;;;;10.95;2.30;;;;;;;;;;5037555;28;20045;-72
2023/10/30 09:05:03;;;;;;;7.05;1.95;;;;;;;;;;5046517;28;20048;-71
2023/10/30 09:08:43;;;;;;;9.90;1.83;;;;;;;;;;5042670;28;20401;-73
2023/10/30 09:12:23;;;;;;;6.97;1.52;;;;;;;;;;5049433;28;20053;-72
2023/10/30 09:16:05;;;;;;;5.93;1.60;;;;;;;;;;5037388;28;20055;-71
2023/10/30 09:19:44;;;;;;;5.72;1.92;;;;;;;;;;5044479;28;20141;-74
2023/10/30 09:23:26;;;;;;;7.63;1.98;;;;;;;;;;5041411;28;20044;-74
2023/10/30 09:27:07;;;;;;;9.50;1.80;;;;;;;;;;5043317;28;20497;-72
2023/10/30 09:30:47;;;;;;;6.05;2.13;;;;;;;;;;5044732;28;20467;-72
2023/10/30 09:34:27;;;;;;;5.15;1.50;;;;;;;;;;5049921;28;20100;-73
2023/10/30 09:38:10;;;;;;;4.38;1.65;;;;;;;;;;5041706;28;20040;-73
2023/10/30 09:41:52;;;;;;;2.25;1.40;;;;;;;;;;5047687;28;20192;-73
2023/10/30 09:45:32;;;;;;;4.93;1.30;;;;;;;;;;5038663;28;20064;-73
2023/10/30 09:49:13;;;;;;;3.25;1.33;;;;;;;;;;5049744;28;20055;-73
2023/10/30 09:52:53;;;;;;;9.15;1.73;;;;;;;;;;5052131;28;20193;-74
2023/10/30 09:56:35;;;;;;;5.60;1.20;;;;;;;;;;5048440;28;20044;-77
2023/10/30 10:00:15;;;;;;;6.57;1.30;;;;;;;;;;5045132;28;20052;-72
2023/10/30 10:03:56;;;;;;;4.65;1.30;;;;;;;;;;5049319;28;20580;-74
2023/10/30 10:07:36;;;;;;;9.70;1.30;;;;;;;;;;5041592;28;20049;-74
2023/10/30 10:11:36;;;;;;;5.30;1.50;;;;;;;;;;5048146;28;20120;-72
2023/10/30 10:15:16;;;;;;;7.43;1.50;;;;;;;;;;5048071;28;20057;-74
2023/10/30 10:18:58;;;;;;;5.32;1.30;;;;;;;;;;5046445;28;20237;-72
2023/10/30 10:22:47;;;;;;;6.30;1.13;;;;;;;;;;5043538;28;20378;-71
2023/10/30 10:26:35;;;;;;;5.38;1.00;;;;;;;;;;5057815;28;20048;-73
2023/10/30 10:30:18;;;;;;;4.88;1.00;;;;;;;;;;5047031;28;20052;-72
2023/10/30 10:33:56;;;;;;;11.55;1.23;;;;;;;;;;5043462;28;20071;-71
2023/10/30 10:37:36;;;;;;;7.85;0.75;;;;;;;;;;5050565;28;21231;-74
2023/10/30 10:41:17;;;;;;;3.05;0.95;;;;;;;;;;5044613;28;20049;-71
2023/10/30 10:44:57;;;;;;;3.88;0.80;;;;;;;;;;5056209;28;20056;-75
2023/10/30 10:48:37;;;;;;;3.00;0.70;;;;;;;;;;5043214;28;20045;-72
2023/10/30 10:52:19;;;;;;;9.20;0.93;;;;;;;;;;5046838;28;20130;-73
2023/10/30 10:56:07;;;;;;;2.33;0.90;;;;;;;;;;5049227;28;20045;-72
2023/10/30 10:59:49;;;;;;;11.48;0.80;;;;;;;;;;5050402;28;20424;-73
2023/10/30 11:03:30;;;;;;;5.35;0.60;;;;;;;;;;5049001;28;20075;-72
2023/10/30 11:07:10;;;;;;;2.30;0.65;;;;;;;;;;5048081;28;20435;-74
2023/10/30 11:10:53;;;;;;;3.72;0.70;;;;;;;;;;5043475;28;20052;-76
2023/10/30 11:14:47;;;;;;;6.75;0.90;;;;;;;;;;5037311;28;20080;-75
2023/10/30 11:18:32;;;;;;;3.17;0.70;;;;;;;;;;5050902;28;20056;-76
2023/10/30 11:22:12;;;;;;;5.00;0.88;;;;;;;;;;5044011;28;20049;-77
2023/10/30 11:26:11;;;;;;;6.63;0.90;;;;;;;;;;5046308;28;20041;-74
2023/10/30 11:29:05;;;;;;;12.98;0.95;;;;;;;;;;5047624;28;20466;-75
2023/10/30 11:32:45;;;;;;;8.77;0.88;;;;;;;;;;5043836;28;20143;-75
2023/10/30 11:36:15;;;;;;;5.28;0.80;;;;;;;;;;5047165;28;20436;-73
2023/10/30 11:40:02;;;;;;;1.88;0.90;;;;;;;;;;5043058;28;20113;-73
2023/10/30 11:43:43;;;;;;;4.35;0.90;;;;;;;;;;5035807;28;20049;-73
2023/10/30 11:47:23;;;;;;;9.30;1.20;;;;;;;;;;5051549;28;20061;-72
2023/10/30 11:51:05;;;;;;;5.32;1.38;;;;;;;;;;5041411;28;20272;-72
2023/10/30 11:54:49;;;;;;;3.45;1.00;;;;;;;;;;5043882;28;20497;-75
2023/10/30 11:58:29;;;;;;;2.95;0.80;;;;;;;;;;5042735;28;20159;-74
2023/10/30 12:02:09;;;;;;;6.22;0.80;;;;;;;;;;5042269;28;20049;-72
2023/10/30 12:05:50;;;;;;;6.03;0.93;;;;;;;;;;5033301;28;20064;-74
2023/10/30 12:09:30;;;;;;;6.38;1.30;;;;;;;;;;5040412;28;20040;-72
2023/10/30 12:13:11;;;;;;;1.30;0.85;;;;;;;;;;5045203;28;20104;-71
2023/10/30 12:16:55;;;;;;;2.72;0.52;;;;;;;;;;5042584;28;20412;-73
2023/10/30 12:20:36;;;;;;;1.60;0.52;;;;;;;;;;5034187;28;20074;-72
2023/10/30 12:24:18;;;;;;;7.10;0.88;;;;;;;;;;5043185;28;20036;-72
2023/10/30 12:27:58;;;;;;;4.28;0.90;;;;;;;;;;5047629;28;20033;-72
2023/10/30 12:31:40;;;;;;;1.95;0.70;;;;;;;;;;5042264;28;20047;-72
2023/10/30 12:35:26;;;;;;;4.57;0.75;;;;;;;;;;5043983;28;20126;-75
2023/10/30 12:39:07;;;;;;;2.58;0.40;;;;;;;;;;4996410;28;20064;-73
2023/10/30 12:42:48;;;;;;;1.35;0.60;;;;;;;;;;5004795;28;20037;-74
2023/10/30 12:46:29;;;;;;;3.92;0.63;;;;;;;;;;4990823;28;20054;-73
2023/10/30 12:50:09;;;;;;;1.00;0.57;;;;;;;;;;5007781;28;20050;-72
2023/10/30 12:53:49;;;;;;;7.32;0.88;;;;;;;;;;5017256;28;20042;-73
2023/10/30 12:57:30;;;;;;;2.95;0.43;;;;;;;;;;5009431;28;20489;-73
2023/10/30 13:01:10;;;;;;;1.35;0.60;;;;;;;;;;5004484;28;20057;-74
2023/10/30 13:04:50;;;;;;;2.22;0.70;;;;;;;;;;4996644;28;20050;-73
2023/10/30 13:08:32;;;;;;;8.63;0.80;;;;;;;;;;5003587;28;20755;-74
2023/10/30 13:12:12;;;;;;;3.22;1.00;;;;;;;;;;5002552;28;20145;-73
2023/10/30 13:15:52;;;;;;;3.05;0.70;;;;;;;;;;5030257;28;20511;-73
2023/10/30 13:19:33;;;;;;;1.02;0.40;;;;;;;;;;5052838;28;20206;-74
2023/10/30 13:23:13;;;;;;;3.78;0.50;;;;;;;;;;5054469;28;20126;-73
2023/10/30 13:26:53;;;;;;;3.55;0.93;;;;;;;;;;5064428;28;20124;-74
2023/10/30 13:30:35;;;;;;;1.17;0.70;;;;;;;;;;5052372;28;20265;-77
2023/10/30 13:34:17;;;;;;;0.82;0.47;;;;;;;;;;5053620;28;20075;-76
2023/10/30 13:37:58;;;;;;;2.85;0.57;;;;;;;;;;5061343;28;20047;-75
2023/10/30 13:41:39;;;;;;;0.65;0.50;;;;;;;;;;5052057;28;20438;-74
2023/10/30 13:45:19;;;;;;;2.05;0.90;;;;;;;;;;5040751;28;20073;-74
2023/10/30 13:49:00;;;;;;;1.02;0.70;;;;;;;;;;5051990;28;20041;-77
2023/10/30 13:52:44;;;;;;;2.95;0.50;;;;;;;;;;5048659;28;20195;-72
2023/10/30 13:56:25;;;;;;;2.92;0.70;;;;;;;;;;5044242;28;20041;-72
2023/10/30 14:00:06;;;;;;;1.15;0.40;;;;;;;;;;5046754;28;20187;-74
2023/10/30 14:03:49;;;;;;;0.45;0.40;;;;;;;;;;5044748;28;20049;-73
2023/10/30 14:07:28;;;;;;;4.18;0.45;;;;;;;;;;5041677;28;20555;-73
2023/10/30 14:11:10;;;;;;;5.00;0.60;;;;;;;;;;5037479;28;20064;-73
2023/10/30 14:14:52;;;;;;;3.63;0.70;;;;;;;;;;5043694;28;20083;-75
2023/10/30 14:18:32;;;;;;;0.60;0.50;;;;;;;;;;5052585;28;20128;-75
2023/10/30 14:22:13;;;;;;;1.45;0.73;;;;;;;;;;5038998;28;20053;-75
2023/10/30 14:25:53;;;;;;;6.68;0.80;;;;;;;;;;5046592;28;20516;-74
2023/10/30 14:29:33;;;;;;;3.92;0.70;;;;;;;;;;5043489;28;20040;-74
2023/10/30 14:33:14;;;;;;;1.25;0.70;;;;;;;;;;5043232;28;20242;-75
2023/10/30 14:36:56;;;;;;;0.70;0.55;;;;;;;;;;5050897;28;20156;-76
2023/10/30 14:40:36;;;;;;;6.10;0.60;;;;;;;;;;5051660;28;20413;-75
2023/10/30 14:44:16;;;;;;;11.10;1.08;;;;;;;;;;5048569;28;20045;-74
2023/10/30 14:47:59;;;;;;;3.13;0.68;;;;;;;;;;5044942;28;20141;-74
2023/10/30 14:51:38;;;;;;;9.57;1.10;;;;;;;;;;5046937;28;20105;-73
2023/10/30 14:55:19;;;;;;;0.80;0.60;;;;;;;;;;5039295;28;20390;-74
2023/10/30 14:58:59;;;;;;;3.40;0.90;;;;;;;;;;5043258;28;20512;-75
2023/10/30 15:02:39;;;;;;;0.85;0.47;;;;;;;;;;5042637;28;20365;-73
2023/10/30 15:06:21;;;;;;;3.80;0.60;;;;;;;;;;5044892;28;20490;-74
2023/10/30 15:10:02;;;;;;;1.63;0.60;;;;;;;;;;5044599;28;20405;-74
2023/10/30 15:13:41;;;;;;;4.97;0.68;;;;;;;;;;5038800;28;20052;-74
2023/10/30 15:17:22;;;;;;;14.80;0.75;;;;;;;;;;5042647;28;20048;-74
2023/10/30 15:21:03;;;;;;;3.60;0.70;;;;;;;;;;5043524;28;20053;-75
2023/10/30 15:24:43;;;;;;;2.88;0.95;;;;;;;;;;5045264;28;20049;-73
2023/10/30 15:28:23;;;;;;;8.90;1.10;;;;;;;;;;5040562;28;20536;-75
2023/10/30 15:32:06;;;;;;;6.90;0.70;;;;;;;;;;5043769;28;20464;-77
2023/10/30 15:35:46;;;;;;;4.32;0.80;;;;;;;;;;5056803;28;20365;-77
2023/10/30 15:39:27;;;;;;;6.97;1.20;;;;;;;;;;5050035;28;20319;-75
2023/10/30 15:43:08;;;;;;;2.75;0.90;;;;;;;;;;5045173;28;20444;-74
2023/10/30 15:46:49;;;;;;;6.65;0.88;;;;;;;;;;5036176;28;20056;-73
2023/10/30 15:50:29;;;;;;;3.13;0.77;;;;;;;;;;5049026;28;20064;-79
2023/10/30 15:54:24;;;;;;;6.07;1.20;;;;;;;;;;5044597;28;20080;-77
2023/10/30 15:58:05;;;;;;;2.45;0.68;;;;;;;;;;5033721;28;20050;-77
2023/10/30 16:01:45;;;;;;;1.95;0.70;;;;;;;;;;5044639;28;20397;-74
2023/10/30 16:05:26;;;;;;;4.00;0.60;;;;;;;;;;5045248;28;20041;-77
2023/10/30 16:09:06;;;;;;;2.83;0.68;;;;;;;;;;5044083;28;20147;-79
2023/10/30 16:12:46;;;;;;;1.77;0.70;;;;;;;;;;5047178;28;20041;-80
2023/10/30 16:16:27;;;;;;;4.22;0.60;;;;;;;;;;5040708;28;20103;-79
2023/10/30 16:20:09;;;;;;;3.40;0.52;;;;;;;;;;5048145;28;20602;-81
2023/10/30 16:23:49;;;;;;;1.40;0.75;;;;;;;;;;5046980;28;20076;-80
2023/10/30 16:27:29;;;;;;;3.38;0.55;;;;;;;;;;5048337;28;20539;-80
2023/10/30 16:31:10;;;;;;;2.80;0.60;;;;;;;;;;5039882;28;20071;-81
2023/10/30 16:34:50;;;;;;;1.08;0.50;;;;;;;;;;5047393;28;20485;-82
2023/10/30 16:38:30;;;;;;;3.22;0.80;;;;;;;;;;5037868;28;20068;-78
2023/10/30 16:42:11;;;;;;;1.33;0.60;;;;;;;;;;5045563;28;20162;-76
2023/10/30 16:45:51;;;;;;;4.80;0.80;;;;;;;;;;5039105;28;20476;-77
2023/10/30 16:49:34;;;;;;;1.85;0.73;;;;;;;;;;5047810;28;20056;-76
2023/10/30 16:53:15;;;;;;;4.85;1.00;;;;;;;;;;5052199;28;20076;-77
2023/10/30 16:56:55;;;;;;;0.60;0.40;;;;;;;;;;5037328;28;20138;-75
2023/10/30 17:00:36;;;;;;;2.78;0.70;;;;;;;;;;5040476;28;20052;-76
2023/10/30 17:04:17;;;;;;;3.47;0.93;;;;;;;;;;5037988;28;20044;-78
2023/10/30 17:07:26;;;;;;;1.75;0.90;;;;;;;;;;5042650;28;20060;-79
2023/10/30 17:11:06;;;;;;;4.22;0.77;;;;;;;;;;5041121;28;20057;-78
2023/10/30 17:14:53;;;;;;;0.90;0.60;;;;;;;;;;5047871;28;20441;-81
2023/10/30 17:18:28;;;;;;;1.17;0.40;;;;;;;;;;5048786;28;20450;-77
2023/10/30 17:22:07;;;;;;;2.15;0.65;;;;;;;;;;5040671;28;20053;-75
2023/10/30 17:25:48;;;;;;;2.20;0.88;;;;;;;;;;5041008;28;20087;-79
2023/10/30 17:29:28;;;;;;;3.80;0.80;;;;;;;;;;5039558;28;20041;-78
2023/10/30 17:33:09;;;;;;;5.45;0.60;;;;;;;;;;5047583;28;20048;-78
2023/10/30 17:36:50;;;;;;;2.58;0.70;;;;;;;;;;5054152;28;20050;-80
2023/10/30 17:40:31;;;;;;;5.38;0.80;;;;;;;;;;5045390;28;20053;-79
2023/10/30 17:44:11;;;;;;;3.58;0.75;;;;;;;;;;5045399;28;20079;-78
2023/10/30 17:47:51;;;;;;;1.70;0.52;;;;;;;;;;5033490;28;20088;-79
2023/10/30 17:51:32;;;;;;;1.80;0.70;;;;;;;;;;5034395;28;20056;-78
2023/10/30 17:55:12;;;;;;;4.50;0.70;;;;;;;;;;5039488;28;20045;-79
2023/10/30 17:58:53;;;;;;;1.60;0.70;;;;;;;;;;5046832;28;20088;-79
2023/10/30 18:02:35;;;;;;;5.30;0.90;;;;;;;;;;5041937;28;20076;-78
2023/10/30 18:06:15;;;;;;;7.05;1.10;;;;;;;;;;5050245;28;20064;-78
2023/10/30 18:09:58;;;;;;;2.75;0.60;;;;;;;;;;5050544;28;20049;-77
2023/10/30 18:13:37;;;;;;;3.90;1.17;;;;;;;;;;5056822;28;20119;-79
2023/10/30 18:17:18;;;;;;;3.97;0.88;;;;;;;;;;5039116;28;20100;-79
2023/10/30 18:21:01;;;;;;;3.30;0.90;;;;;;;;;;5044604;28;20709;-76
2023/10/30 18:24:41;;;;;;;1.77;0.70;;;;;;;;;;5047154;28;20382;-74
2023/10/30 18:28:21;;;;;;;6.30;0.80;;;;;;;;;;5044363;28;21872;-75
2023/10/30 18:32:01;;;;;;;2.85;0.88;;;;;;;;;;5039780;28;20048;-74
2023/10/30 18:35:02;;;;;;;2.83;0.90;;;;;;;;;;5046927;28;20443;-75
2023/10/30 18:37:29;;;;;;;1.00;0.43;;;;;;;;;;5032780;28;20044;-77
2023/10/30 18:39:56;;;;;;;3.80;1.00;;;;;;;;;;5041303;28;20045;-77
2023/10/30 18:42:26;;;;;;;7.90;0.80;;;;;;;;;;5046526;28;20068;-76
2023/10/30 18:44:53;;;;;;;3.67;0.88;;;;;;;;;;5044150;28;20044;-76
2023/10/30 18:47:19;;;;;;;3.60;0.75;;;;;;;;;;5040063;28;20493;-74
2023/10/30 18:49:46;;;;;;;2.42;0.75;;;;;;;;;;5047898;28;20048;-75
2023/10/30 18:52:14;;;;;;;1.88;0.80;;;;;;;;;;5050385;28;20053;-75
2023/10/30 18:54:40;;;;;;;6.75;0.88;;;;;;;;;;5041226;28;20049;-73
2023/10/30 18:57:07;;;;;;;3.75;1.05;;;;;;;;;;5046686;28;20060;-75
2023/10/30 18:59:33;;;;;;;5.25;1.20;;;;;;;;;;5056377;28;20053;-74
2023/10/30 19:02:00;;;;;;;3.42;0.95;;;;;;;;;;5026308;28;20053;-75
2023/10/30 19:04:28;;;;;;;5.78;1.20;;;;;;;;;;5051980;28;20056;-74
2023/10/30 19:06:54;;;;;;;2.83;1.23;;;;;;;;;;5043003;28;20065;-73
2023/10/30 19:09:20;;;;;;;6.32;1.02;;;;;;;;;;5020036;28;20640;-81
2023/10/30 19:11:50;;;;;;;3.20;0.90;;;;;;;;;;5046658;28;20448;-78
2023/10/30 19:14:20;;;;;;;2.85;1.20;;;;;;;;;;5036161;28;20057;-70
2023/10/30 19:16:46;;;;;;;2.78;0.85;;;;;;;;;;5017890;28;20196;-78
2023/10/30 19:19:14;;;;;;;2.63;1.13;;;;;;;;;;5036992;28;20148;-78
2023/10/30 19:21:40;;;;;;;2.60;0.93;;;;;;;;;;5036744;28;20045;-72
2023/10/30 19:24:06;;;;;;;3.42;0.90;;;;;;;;;;5038097;28;20068;-77
2023/10/30 19:26:35;;;;;;;3.13;1.20;;;;;;;;;;5042180;28;20278;-74
2023/10/30 19:29:01;;;;;;;2.65;0.90;;;;;;;;;;5060676;28;20057;-74
2023/10/30 19:31:27;;;;;;;3.88;1.13;;;;;;;;;;5043268;28;20245;-77
2023/10/30 19:33:53;;;;;;;2.78;0.80;;;;;;;;;;5055623;28;20419;-77
2023/10/30 19:36:20;;;;;;;2.70;0.90;;;;;;;;;;5028146;28;20067;-76
2023/10/30 19:38:46;;;;;;;3.90;0.98;;;;;;;;;;5039059;28;20057;-75
2023/10/30 19:41:14;;;;;;;2.60;0.85;;;;;;;;;;5026079;28;20060;-79
2023/10/30 19:44:21;;;;;;;2.72;0.80;;;;;;;;;;5047773;28;20045;-77
2023/10/30 19:48:01;;;;;;;0.88;0.63;;;;;;;;;;5041561;28;20060;-73
2023/10/30 19:51:42;;;;;;;2.28;0.85;;;;;;;;;;5055374;28;20493;-77
2023/10/30 19:55:22;;;;;;;2.42;0.80;;;;;;;;;;5049127;28;20044;-78
2023/10/30 19:59:03;;;;;;;4.18;0.95;;;;;;;;;;5042525;28;20047;-76
2023/10/30 20:02:44;;;;;;;3.30;1.20;;;;;;;;;;5036913;28;20104;-74
2023/10/30 20:06:25;;;;;;;7.63;1.10;;;;;;;;;;5039146;28;20040;-77
2023/10/30 20:10:08;;;;;;;3.97;0.90;;;;;;;;;;5043603;28;20128;-76
2023/10/30 20:13:50;;;;;;;1.55;0.95;;;;;;;;;;5045003;28;20080;-76
2023/10/30 20:17:30;;;;;;;7.72;1.60;;;;;;;;;;5045167;28;20049;-76
2023/10/30 20:21:11;;;;;;;2.65;0.95;;;;;;;;;;5049766;28;20044;-75
2023/10/30 20:24:51;;;;;;;4.47;0.90;;;;;;;;;;5043255;28;20060;-76
2023/10/30 20:28:33;;;;;;;2.10;0.93;;;;;;;;;;5041301;28;20045;-75
2023/10/30 20:32:13;;;;;;;2.45;0.82;;;;;;;;;;5043784;28;20063;-76
2023/10/30 20:35:54;;;;;;;3.03;0.70;;;;;;;;;;5046962;28;20418;-76
2023/10/30 20:39:34;;;;;;;3.17;1.00;;;;;;;;;;5035413;28;20087;-76
2023/10/30 20:43:14;;;;;;;2.25;0.75;;;;;;;;;;5044984;28;20099;-78
2023/10/30 20:46:55;;;;;;;3.00;0.98;;;;;;;;;;5034200;28;20155;-76
2023/10/30 20:50:37;;;;;;;4.18;0.75;;;;;;;;;;5049928;28;20517;-76
2023/10/30 20:54:15;;;;;;;3.22;1.10;;;;;;;;;;5034412;28;20048;-77
2023/10/30 20:57:56;;;;;;;2.15;1.00;;;;;;;;;;5037633;28;20056;-73
2023/10/30 21:01:36;;;;;;;3.42;0.73;;;;;;;;;;5037746;28;20132;-78
2023/10/30 21:05:16;;;;;;;3.72;1.27;;;;;;;;;;5041101;28;20075;-77
2023/10/30 21:08:57;;;;;;;1.77;0.90;;;;;;;;;;5037838;28;20390;-78
2023/10/30 21:12:37;;;;;;;3.33;1.00;;;;;;;;;;5046056;28;20049;-80
2023/10/30 21:16:19;;;;;;;2.78;1.00;;;;;;;;;;5065360;28;20052;-80
2023/10/30 21:19:59;;;;;;;2.20;1.00;;;;;;;;;;5046276;28;20218;-77
2023/10/30 21:23:39;;;;;;;4.25;0.70;;;;;;;;;;5045655;28;20155;-76
2023/10/30 21:27:20;;;;;;;1.25;0.68;;;;;;;;;;5035002;28;20104;-76